Time;durP1;ratioP1;P1;durP2;ratioP2;P2;SDS_P1;SDS_P2;PMS_P1;PMS_P2;Temp;Humidity;BMP_temperature;BMP_pressure;BME280_temperature;BME280_humidity;BME280_pressure;Samples;Min_cycle;Max_cycle;Signal;HPM_P1;HPM_P2
2022/07/18 00:00:29;;;;;;;5.50;2.20;;;;;;;;;;108756;1254;33746;-41
2022/07/18 00:03:12;;;;;;;5.10;1.70;;;;;;;;;;108788;1254;33639;-42
2022/07/18 00:05:44;;;;;;;7.10;1.90;;;;;;;;;;108801;1254;33550;-41
2022/07/18 00:08:17;;;;;;;4.00;1.50;;;;;;;;;;108763;1261;33484;-45
2022/07/18 00:10:50;;;;;;;5.80;1.90;;;;;;;;;;108769;1254;33162;-43
2022/07/18 00:13:23;;;;;;;4.90;1.80;;;;;;;;;;108800;1254;33679;-45
2022/07/18 00:15:55;;;;;;;5.30;1.70;;;;;;;;;;108768;1254;33040;-41
2022/07/18 00:18:28;;;;;;;4.90;2.10;;;;;;;;;;108779;1254;33491;-41
2022/07/18 00:21:00;;;;;;;4.50;1.50;;;;;;;;;;108741;1254;33681;-41
2022/07/18 00:23:33;;;;;;;4.10;1.70;;;;;;;;;;108801;1254;34152;-43
2022/07/18 00:26:06;;;;;;;4.50;1.40;;;;;;;;;;108805;1254;33450;-41
2022/07/18 00:28:38;;;;;;;3.70;1.70;;;;;;;;;;108783;1261;34085;-42
2022/07/18 00:31:11;;;;;;;4.00;2.20;;;;;;;;;;108774;1255;33199;-44
2022/07/18 00:33:43;;;;;;;4.30;1.70;;;;;;;;;;108759;1254;33418;-44
2022/07/18 00:36:16;;;;;;;4.20;1.60;;;;;;;;;;108759;1261;33759;-43
2022/07/18 00:38:48;;;;;;;4.00;1.70;;;;;;;;;;108788;1261;33740;-42
2022/07/18 00:41:21;;;;;;;4.70;2.00;;;;;;;;;;108770;1261;32206;-43
2022/07/18 00:43:54;;;;;;;4.80;2.00;;;;;;;;;;108792;1254;33668;-43
2022/07/18 00:46:29;;;;;;;5.70;1.90;;;;;;;;;;108774;1254;33558;-41
2022/07/18 00:49:01;;;;;;;3.50;1.80;;;;;;;;;;108775;1261;33486;-43
2022/07/18 00:51:36;;;;;;;4.40;1.70;;;;;;;;;;108771;1256;33029;-42
2022/07/18 00:54:08;;;;;;;3.60;1.70;;;;;;;;;;108790;1253;33952;-41
2022/07/18 00:56:44;;;;;;;4.30;1.70;;;;;;;;;;108802;1254;34318;-42
2022/07/18 00:59:17;;;;;;;5.00;1.90;;;;;;;;;;108781;1254;33563;-44
2022/07/18 01:01:51;;;;;;;3.80;1.70;;;;;;;;;;108793;1255;33661;-42
2022/07/18 01:04:25;;;;;;;4.10;1.90;;;;;;;;;;108772;1254;33530;-42
2022/07/18 01:06:58;;;;;;;5.70;2.00;;;;;;;;;;108746;1254;33669;-43
2022/07/18 01:09:30;;;;;;;4.40;2.30;;;;;;;;;;108737;1261;34459;-44
2022/07/18 01:12:04;;;;;;;4.10;2.10;;;;;;;;;;108750;1254;33167;-41
2022/07/18 01:14:34;;;;;;;;;;;;;;;;;;108770;1254;33107;-41
2022/07/18 01:17:14;;;;;;;4.30;1.80;;;;;;;;;;108770;1254;32958;-41
2022/07/18 01:19:47;;;;;;;4.80;1.90;;;;;;;;;;108801;1253;33434;-42
2022/07/18 01:22:20;;;;;;;;;;;;;;;;;;108832;1261;33783;-43
2022/07/18 01:24:52;;;;;;;4.90;2.10;;;;;;;;;;108872;1254;33374;-41
2022/07/18 01:27:25;;;;;;;5.00;2.10;;;;;;;;;;108832;1254;33082;-42
2022/07/18 01:29:57;;;;;;;4.60;1.80;;;;;;;;;;108810;1261;33861;-42
2022/07/18 01:32:30;;;;;;;4.80;2.40;;;;;;;;;;108825;1254;33495;-44
2022/07/18 01:35:03;;;;;;;4.50;2.00;;;;;;;;;;108812;1255;33595;-42
2022/07/18 01:37:35;;;;;;;4.70;2.00;;;;;;;;;;108843;1254;33636;-42
2022/07/18 01:40:14;;;;;;;4.40;2.00;;;;;;;;;;108850;1261;33617;-45
2022/07/18 01:42:46;;;;;;;4.70;2.10;;;;;;;;;;108862;1254;33201;-42
2022/07/18 01:45:22;;;;;;;4.40;2.10;;;;;;;;;;108805;1254;33614;-43
2022/07/18 01:47:55;;;;;;;4.70;2.10;;;;;;;;;;108854;1254;33706;-41
2022/07/18 01:50:27;;;;;;;3.70;1.80;;;;;;;;;;108853;1261;33777;-42
2022/07/18 01:52:59;;;;;;;4.90;2.10;;;;;;;;;;108823;1261;33916;-41
2022/07/18 01:55:33;;;;;;;3.90;2.00;;;;;;;;;;108814;1254;33522;-42
2022/07/18 01:58:06;;;;;;;3.20;1.70;;;;;;;;;;108834;1254;34002;-42
2022/07/18 02:00:39;;;;;;;3.50;1.90;;;;;;;;;;108811;1261;33688;-41
2022/07/18 02:03:11;;;;;;;3.60;1.90;;;;;;;;;;108840;1262;33189;-43
2022/07/18 02:05:43;;;;;;;4.20;2.20;;;;;;;;;;108854;1254;34154;-41
2022/07/18 02:08:16;;;;;;;4.00;2.10;;;;;;;;;;108862;1261;33537;-42
2022/07/18 02:10:49;;;;;;;3.80;2.20;;;;;;;;;;108865;1254;33564;-45
2022/07/18 02:13:21;;;;;;;4.00;2.20;;;;;;;;;;108855;1254;33293;-41
2022/07/18 02:15:55;;;;;;;4.20;2.30;;;;;;;;;;108791;1254;34066;-42
2022/07/18 02:18:27;;;;;;;4.00;2.30;;;;;;;;;;108875;1254;33443;-41
2022/07/18 02:21:02;;;;;;;4.30;2.50;;;;;;;;;;108810;1261;33864;-45
2022/07/18 02:23:35;;;;;;;4.30;2.20;;;;;;;;;;108831;1261;34122;-42
2022/07/18 02:26:09;;;;;;;4.60;2.20;;;;;;;;;;108834;1254;33596;-42
2022/07/18 02:28:40;;;;;;;;;;;;;;;;;;108840;1262;33676;-44
2022/07/18 02:31:12;;;;;;;4.40;2.30;;;;;;;;;;108815;1261;33661;-43
2022/07/18 02:33:44;;;;;;;4.50;2.20;;;;;;;;;;108825;1254;34172;-42
2022/07/18 02:36:17;;;;;;;4.30;2.70;;;;;;;;;;108809;1254;33527;-42
2022/07/18 02:38:49;;;;;;;4.50;2.60;;;;;;;;;;108826;1254;34103;-43
2022/07/18 02:41:22;;;;;;;4.60;2.40;;;;;;;;;;108830;1261;33652;-42
2022/07/18 02:43:54;;;;;;;4.70;2.30;;;;;;;;;;108860;1254;33518;-41
2022/07/18 02:46:27;;;;;;;4.00;2.20;;;;;;;;;;108824;1254;33550;-41
2022/07/18 02:49:00;;;;;;;5.10;2.70;;;;;;;;;;108815;1254;33453;-43
2022/07/18 02:51:34;;;;;;;4.20;2.40;;;;;;;;;;108816;1254;33236;-41
2022/07/18 02:54:07;;;;;;;4.80;2.60;;;;;;;;;;108798;1254;33623;-43
2022/07/18 02:56:39;;;;;;;5.40;2.30;;;;;;;;;;108794;1254;33014;-41
2022/07/18 02:59:13;;;;;;;5.00;2.50;;;;;;;;;;108828;1254;33412;-41
2022/07/18 03:01:46;;;;;;;6.10;2.90;;;;;;;;;;108796;1261;34037;-42
2022/07/18 03:04:19;;;;;;;4.90;2.50;;;;;;;;;;108807;1254;33556;-41
2022/07/18 03:06:52;;;;;;;5.00;2.40;;;;;;;;;;108823;1255;33877;-41
2022/07/18 03:09:26;;;;;;;;;;;;;;;;;;108842;1254;33545;-41
2022/07/18 03:11:59;;;;;;;5.00;2.70;;;;;;;;;;108810;1261;33903;-43
2022/07/18 03:14:31;;;;;;;4.20;2.40;;;;;;;;;;108789;1254;33652;-44
2022/07/18 03:17:03;;;;;;;;;;;;;;;;;;108841;1254;34070;-43
2022/07/18 03:19:37;;;;;;;5.00;3.00;;;;;;;;;;108773;1256;33448;-43
2022/07/18 03:22:09;;;;;;;4.50;2.50;;;;;;;;;;108845;1254;33622;-42
2022/07/18 03:24:41;;;;;;;4.60;2.70;;;;;;;;;;108821;1254;33228;-42
2022/07/18 03:27:14;;;;;;;4.40;2.30;;;;;;;;;;108814;1254;33719;-41
2022/07/18 03:29:47;;;;;;;4.90;2.60;;;;;;;;;;108799;1255;33398;-41
2022/07/18 03:32:19;;;;;;;5.70;3.10;;;;;;;;;;108776;1254;33260;-44
2022/07/18 03:34:51;;;;;;;5.70;3.00;;;;;;;;;;108814;1254;33673;-42
2022/07/18 03:37:24;;;;;;;4.30;2.40;;;;;;;;;;108806;1254;34108;-42
2022/07/18 03:39:56;;;;;;;4.40;2.70;;;;;;;;;;108794;1254;33417;-43
2022/07/18 03:42:28;;;;;;;5.00;2.70;;;;;;;;;;108814;1261;33771;-43
2022/07/18 03:45:01;;;;;;;4.20;2.60;;;;;;;;;;108776;1254;33103;-43
2022/07/18 03:47:33;;;;;;;4.90;2.60;;;;;;;;;;108769;1254;33533;-42
2022/07/18 03:50:08;;;;;;;5.20;2.90;;;;;;;;;;108793;1255;33711;-42
2022/07/18 03:52:40;;;;;;;4.30;2.80;;;;;;;;;;108828;1254;33764;-41
2022/07/18 03:55:13;;;;;;;4.60;2.60;;;;;;;;;;108805;1254;33789;-41
2022/07/18 03:57:44;;;;;;;;;;;;;;;;;;108845;1254;33860;-41
2022/07/18 04:00:22;;;;;;;4.90;2.60;;;;;;;;;;108829;1261;33560;-42
2022/07/18 04:02:54;;;;;;;4.80;2.40;;;;;;;;;;108816;1254;33476;-41
2022/07/18 04:05:27;;;;;;;4.70;2.70;;;;;;;;;;108792;1255;33137;-43
2022/07/18 04:08:01;;;;;;;5.30;2.70;;;;;;;;;;108790;1254;33521;-41
2022/07/18 04:10:34;;;;;;;4.70;2.40;;;;;;;;;;108818;1254;33395;-42
2022/07/18 04:13:05;;;;;;;;;;;;;;;;;;108838;1254;33871;-41
2022/07/18 04:15:43;;;;;;;4.70;2.80;;;;;;;;;;108797;1253;33148;-43
2022/07/18 04:18:15;;;;;;;4.30;2.50;;;;;;;;;;108819;1255;33654;-42
2022/07/18 04:20:49;;;;;;;4.80;2.50;;;;;;;;;;108827;1261;33587;-41
2022/07/18 04:23:19;;;;;;;;;;;;;;;;;;108837;1261;33181;-42
2022/07/18 04:25:52;;;;;;;5.10;2.70;;;;;;;;;;108812;1254;33270;-42
2022/07/18 04:28:24;;;;;;;5.10;2.70;;;;;;;;;;108774;1255;33966;-41
2022/07/18 04:30:59;;;;;;;5.60;2.80;;;;;;;;;;108841;1254;33162;-41
2022/07/18 04:33:32;;;;;;;6.00;2.90;;;;;;;;;;108758;1255;33114;-41
2022/07/18 04:36:06;;;;;;;6.00;2.70;;;;;;;;;;108771;1254;33768;-42
2022/07/18 04:38:41;;;;;;;4.80;2.50;;;;;;;;;;108811;1254;33659;-41
2022/07/18 04:41:16;;;;;;;4.20;2.60;;;;;;;;;;108816;1261;33457;-42
2022/07/18 04:43:49;;;;;;;5.50;2.60;;;;;;;;;;108817;1261;33466;-40
2022/07/18 04:46:21;;;;;;;4.50;2.50;;;;;;;;;;108489;1254;397287;-41
2022/07/18 04:48:53;;;;;;;4.80;2.50;;;;;;;;;;108792;1255;33483;-41
2022/07/18 04:51:26;;;;;;;4.90;2.70;;;;;;;;;;108804;1255;33691;-40
2022/07/18 04:53:59;;;;;;;5.00;2.60;;;;;;;;;;108813;1261;33181;-41
2022/07/18 04:56:31;;;;;;;4.50;2.50;;;;;;;;;;108793;1254;33704;-44
2022/07/18 04:59:03;;;;;;;5.30;3.00;;;;;;;;;;108812;1254;34076;-41
2022/07/18 05:01:36;;;;;;;4.70;2.70;;;;;;;;;;108836;1261;34533;-42
2022/07/18 05:04:09;;;;;;;4.30;2.30;;;;;;;;;;108851;1262;33068;-43
2022/07/18 05:06:42;;;;;;;4.70;2.90;;;;;;;;;;108801;1254;33678;-44
2022/07/18 05:09:14;;;;;;;5.30;2.40;;;;;;;;;;108827;1254;33518;-42
2022/07/18 05:11:47;;;;;;;4.40;2.50;;;;;;;;;;108857;1261;34056;-41
2022/07/18 05:14:20;;;;;;;3.70;2.30;;;;;;;;;;108832;1261;33243;-41
2022/07/18 05:16:53;;;;;;;4.90;2.50;;;;;;;;;;108802;1254;33605;-41
2022/07/18 05:19:26;;;;;;;4.60;2.60;;;;;;;;;;108819;1255;32955;-41
2022/07/18 05:21:58;;;;;;;4.20;2.30;;;;;;;;;;108803;1255;33411;-41
2022/07/18 05:24:30;;;;;;;4.40;2.40;;;;;;;;;;108812;1254;33767;-42
2022/07/18 05:27:03;;;;;;;4.20;2.40;;;;;;;;;;108824;1254;33638;-41
2022/07/18 05:29:35;;;;;;;4.20;2.40;;;;;;;;;;108808;1254;33481;-41
2022/07/18 05:32:12;;;;;;;4.10;2.40;;;;;;;;;;108815;1261;33627;-41
2022/07/18 05:34:45;;;;;;;4.30;2.30;;;;;;;;;;108784;1255;33585;-41
2022/07/18 05:37:17;;;;;;;4.10;2.40;;;;;;;;;;108815;1256;34128;-41
2022/07/18 05:39:52;;;;;;;4.90;2.70;;;;;;;;;;108843;1255;33428;-41
2022/07/18 05:42:24;;;;;;;4.50;2.40;;;;;;;;;;108820;1261;33171;-41
2022/07/18 05:44:56;;;;;;;3.80;2.20;;;;;;;;;;108845;1255;33253;-41
2022/07/18 05:47:29;;;;;;;4.40;2.40;;;;;;;;;;108838;1254;33313;-41
2022/07/18 05:50:05;;;;;;;4.20;2.40;;;;;;;;;;108774;1254;34289;-42
2022/07/18 05:52:38;;;;;;;4.50;2.30;;;;;;;;;;108825;1254;33580;-42
2022/07/18 05:55:16;;;;;;;4.50;2.40;;;;;;;;;;108789;1254;33608;-41
2022/07/18 05:57:49;;;;;;;4.40;2.20;;;;;;;;;;108847;1254;34144;-40
2022/07/18 06:00:21;;;;;;;;;;;;;;;;;;108799;1253;33509;-41
2022/07/18 06:02:54;;;;;;;4.80;2.30;;;;;;;;;;108829;1261;33774;-41
2022/07/18 06:05:27;;;;;;;5.50;2.40;;;;;;;;;;108833;1255;33876;-41
2022/07/18 06:07:59;;;;;;;5.50;2.30;;;;;;;;;;108842;1255;33729;-41
2022/07/18 06:10:37;;;;;;;4.20;2.40;;;;;;;;;;108855;1255;34016;-42
2022/07/18 06:13:09;;;;;;;4.10;2.30;;;;;;;;;;108846;1261;33490;-42
2022/07/18 06:15:41;;;;;;;4.10;2.20;;;;;;;;;;108810;1262;33733;-42
2022/07/18 06:18:14;;;;;;;4.30;2.30;;;;;;;;;;108851;1256;33125;-41
2022/07/18 06:20:46;;;;;;;4.00;2.20;;;;;;;;;;108816;1255;33495;-42
2022/07/18 06:23:18;;;;;;;5.60;2.10;;;;;;;;;;108834;1254;33666;-42
2022/07/18 06:25:50;;;;;;;4.40;2.60;;;;;;;;;;108851;1261;33838;-42
2022/07/18 06:28:24;;;;;;;4.70;2.20;;;;;;;;;;108821;1255;34019;-42
2022/07/18 06:30:57;;;;;;;4.30;2.10;;;;;;;;;;108838;1256;33540;-41
2022/07/18 06:33:29;;;;;;;4.20;2.30;;;;;;;;;;108821;1256;33701;-41
2022/07/18 06:36:01;;;;;;;3.90;2.00;;;;;;;;;;108809;1261;33521;-43
2022/07/18 06:38:34;;;;;;;5.10;2.30;;;;;;;;;;108839;1255;33562;-43
2022/07/18 06:41:09;;;;;;;4.40;2.40;;;;;;;;;;108813;1254;33657;-42
2022/07/18 06:43:42;;;;;;;4.50;2.10;;;;;;;;;;108796;1256;33091;-40
2022/07/18 06:46:14;;;;;;;4.90;2.30;;;;;;;;;;108798;1255;33172;-41
2022/07/18 06:48:46;;;;;;;4.30;2.50;;;;;;;;;;108834;1254;33153;-42
2022/07/18 06:51:19;;;;;;;4.60;2.10;;;;;;;;;;108821;1255;33729;-41
2022/07/18 06:53:51;;;;;;;4.30;2.30;;;;;;;;;;108812;1255;33457;-41
2022/07/18 06:56:25;;;;;;;4.10;2.10;;;;;;;;;;108841;1255;33218;-42
2022/07/18 06:58:57;;;;;;;3.90;2.20;;;;;;;;;;108824;1255;33799;-44
2022/07/18 07:01:29;;;;;;;5.70;2.60;;;;;;;;;;108907;1253;33117;-42
2022/07/18 07:04:02;;;;;;;4.30;2.30;;;;;;;;;;108841;1261;33601;-42
2022/07/18 07:06:37;;;;;;;4.40;2.10;;;;;;;;;;108859;1261;33854;-46
2022/07/18 07:09:10;;;;;;;4.60;2.20;;;;;;;;;;109101;1253;33519;-39
2022/07/18 07:11:42;;;;;;;5.50;2.30;;;;;;;;;;109102;1260;33474;-40
2022/07/18 07:14:15;;;;;;;4.50;2.00;;;;;;;;;;109135;1254;33198;-38
2022/07/18 07:16:49;;;;;;;6.20;2.10;;;;;;;;;;109136;1252;34055;-42
2022/07/18 07:19:22;;;;;;;4.00;2.10;;;;;;;;;;109108;1253;33914;-39
2022/07/18 07:21:54;;;;;;;4.30;2.40;;;;;;;;;;109139;1260;33552;-42
2022/07/18 07:24:27;;;;;;;4.30;2.30;;;;;;;;;;109151;1253;33580;-41
2022/07/18 07:27:00;;;;;;;5.20;2.60;;;;;;;;;;109088;1254;34039;-42
2022/07/18 07:29:32;;;;;;;4.60;2.60;;;;;;;;;;109115;1253;33681;-42
2022/07/18 07:32:08;;;;;;;5.20;2.70;;;;;;;;;;109116;1260;34226;-43
2022/07/18 07:34:41;;;;;;;6.50;3.20;;;;;;;;;;109113;1260;33846;-39
2022/07/18 07:37:13;;;;;;;5.90;2.70;;;;;;;;;;109101;1254;33897;-39
2022/07/18 07:39:46;;;;;;;5.10;2.70;;;;;;;;;;109124;1253;33060;-42
2022/07/18 07:42:18;;;;;;;4.30;2.60;;;;;;;;;;109135;1259;33805;-41
2022/07/18 07:44:51;;;;;;;4.10;2.50;;;;;;;;;;109132;1253;33455;-43
2022/07/18 07:47:23;;;;;;;5.40;3.00;;;;;;;;;;109154;1254;33605;-40
2022/07/18 07:49:55;;;;;;;4.20;2.70;;;;;;;;;;109112;1253;34263;-43
2022/07/18 07:52:28;;;;;;;4.70;2.90;;;;;;;;;;109110;1260;33870;-41
2022/07/18 07:55:01;;;;;;;5.10;2.40;;;;;;;;;;109094;1253;33994;-42
2022/07/18 07:57:35;;;;;;;4.30;2.80;;;;;;;;;;109145;1253;34018;-41
2022/07/18 08:00:13;;;;;;;4.60;2.50;;;;;;;;;;109154;1254;33460;-40
2022/07/18 08:02:58;;;;;;;5.90;2.80;;;;;;;;;;109131;1260;33621;-40
2022/07/18 08:05:33;;;;;;;5.00;2.80;;;;;;;;;;109106;1253;33563;-39
2022/07/18 08:08:08;;;;;;;4.80;2.50;;;;;;;;;;108778;1253;33924;-41
2022/07/18 08:10:43;;;;;;;9.00;3.30;;;;;;;;;;109132;1253;33562;-40
2022/07/18 08:13:16;;;;;;;4.70;2.20;;;;;;;;;;109121;1260;33472;-41
2022/07/18 08:15:51;;;;;;;5.00;2.30;;;;;;;;;;109107;1260;33751;-41
2022/07/18 08:18:26;;;;;;;5.30;2.70;;;;;;;;;;109118;1253;33531;-41
2022/07/18 08:20:59;;;;;;;4.00;2.60;;;;;;;;;;109112;1253;33802;-42
2022/07/18 08:23:31;;;;;;;5.20;2.40;;;;;;;;;;109101;1254;33550;-41
2022/07/18 08:26:04;;;;;;;4.90;2.60;;;;;;;;;;109106;1260;34035;-41
2022/07/18 08:28:37;;;;;;;5.10;2.30;;;;;;;;;;109112;1253;33740;-42
2022/07/18 08:31:11;;;;;;;4.20;2.20;;;;;;;;;;109120;1253;33528;-41
2022/07/18 08:33:45;;;;;;;4.10;2.10;;;;;;;;;;109151;1253;33181;-41
2022/07/18 08:36:20;;;;;;;5.00;1.90;;;;;;;;;;109125;1260;33748;-41
2022/07/18 08:38:54;;;;;;;4.90;2.30;;;;;;;;;;109160;1260;33697;-42
2022/07/18 08:41:28;;;;;;;3.80;1.60;;;;;;;;;;109120;1260;33660;-41
2022/07/18 08:43:58;;;;;;;;;;;;;;;;;;109102;1260;33962;-41
2022/07/18 08:46:31;;;;;;;4.10;1.80;;;;;;;;;;109121;1253;32718;-41
2022/07/18 08:49:06;;;;;;;4.00;1.50;;;;;;;;;;109111;1253;33636;-41
2022/07/18 08:51:41;;;;;;;4.50;1.80;;;;;;;;;;109092;1253;33711;-41
2022/07/18 08:54:17;;;;;;;4.30;2.00;;;;;;;;;;109124;1253;35494;-41
2022/07/18 08:56:51;;;;;;;3.90;1.60;;;;;;;;;;109095;1253;33591;-41
2022/07/18 08:59:23;;;;;;;4.00;1.50;;;;;;;;;;109156;1253;33137;-41
2022/07/18 09:01:55;;;;;;;4.00;1.60;;;;;;;;;;109110;1253;33975;-42
2022/07/18 09:04:41;;;;;;;5.20;1.60;;;;;;;;;;109123;1254;33013;-43
2022/07/18 09:07:27;;;;;;;3.30;1.60;;;;;;;;;;109148;1253;33086;-43
2022/07/18 09:10:04;;;;;;;3.90;1.80;;;;;;;;;;109149;1260;34165;-41
2022/07/18 09:12:37;;;;;;;4.20;1.60;;;;;;;;;;109129;1260;33778;-43
2022/07/18 09:15:13;;;;;;;3.70;1.60;;;;;;;;;;109127;1260;34057;-44
2022/07/18 09:17:46;;;;;;;5.10;1.60;;;;;;;;;;109171;1254;33795;-43
2022/07/18 09:20:19;;;;;;;3.70;1.50;;;;;;;;;;109119;1253;33830;-43
2022/07/18 09:22:50;;;;;;;;;;;;;;;;;;109172;1260;33836;-41
2022/07/18 09:25:26;;;;;;;3.90;1.60;;;;;;;;;;109110;1253;34295;-41
2022/07/18 09:27:58;;;;;;;3.70;1.60;;;;;;;;;;109153;1253;33835;-41
2022/07/18 09:30:32;;;;;;;3.40;1.60;;;;;;;;;;109173;1253;33486;-44
2022/07/18 09:33:12;;;;;;;4.70;1.80;;;;;;;;;;109163;1253;33732;-42
2022/07/18 09:35:50;;;;;;;5.50;1.80;;;;;;;;;;109137;1260;34251;-44
2022/07/18 09:38:25;;;;;;;4.40;1.90;;;;;;;;;;109170;1254;33730;-45
2022/07/18 09:40:57;;;;;;;4.60;1.80;;;;;;;;;;109154;1253;34347;-44
2022/07/18 09:43:30;;;;;;;4.90;1.80;;;;;;;;;;109193;1260;33999;-45
2022/07/18 09:46:07;;;;;;;3.80;1.70;;;;;;;;;;109134;1253;34432;-41
2022/07/18 09:48:39;;;;;;;4.80;1.70;;;;;;;;;;109125;1253;33822;-44
2022/07/18 09:51:11;;;;;;;3.60;1.60;;;;;;;;;;109179;1253;33662;-45
2022/07/18 09:53:46;;;;;;;3.80;1.90;;;;;;;;;;109145;1253;33782;-42
2022/07/18 09:56:27;;;;;;;5.20;1.70;;;;;;;;;;109143;1260;33278;-44
2022/07/18 09:59:00;;;;;;;3.90;1.80;;;;;;;;;;109162;1253;33441;-43
2022/07/18 10:01:35;;;;;;;5.30;1.80;;;;;;;;;;109148;1254;33783;-43
2022/07/18 10:04:09;;;;;;;4.40;1.60;;;;;;;;;;109181;1253;33538;-46
2022/07/18 10:06:44;;;;;;;4.70;1.90;;;;;;;;;;109152;1260;33810;-45
2022/07/18 10:09:16;;;;;;;7.00;3.10;;;;;;;;;;109175;1253;33704;-48
2022/07/18 10:11:48;;;;;;;5.20;2.30;;;;;;;;;;109116;1254;33698;-46
2022/07/18 10:14:21;;;;;;;4.50;2.20;;;;;;;;;;109134;1253;33932;-44
2022/07/18 10:16:56;;;;;;;4.00;1.80;;;;;;;;;;109174;1253;33910;-48
2022/07/18 10:19:29;;;;;;;4.20;1.70;;;;;;;;;;108862;1254;33729;-45
2022/07/18 10:22:01;;;;;;;3.80;1.80;;;;;;;;;;109175;1254;34043;-48
2022/07/18 10:24:36;;;;;;;4.10;2.30;;;;;;;;;;109158;1252;33881;-48
2022/07/18 10:27:22;;;;;;;3.90;2.00;;;;;;;;;;109155;1253;33824;-45
2022/07/18 10:30:19;;;;;;;5.00;2.80;;;;;;;;;;109175;1254;33808;-44
2022/07/18 10:32:51;;;;;;;4.60;2.30;;;;;;;;;;109166;1260;34314;-46
2022/07/18 10:36:07;;;;;;;4.20;2.10;;;;;;;;;;109155;1253;33703;-44
2022/07/18 10:38:55;;;;;;;5.20;2.30;;;;;;;;;;109160;1253;33872;-46
2022/07/18 10:41:27;;;;;;;4.80;2.90;;;;;;;;;;109162;1260;33908;-45
2022/07/18 10:44:02;;;;;;;4.60;2.60;;;;;;;;;;109149;1260;34218;-46
2022/07/18 10:47:09;;;;;;;5.10;3.00;;;;;;;;;;109108;1254;33858;-44
2022/07/18 10:50:10;;;;;;;4.80;3.30;;;;;;;;;;109167;1253;33678;-42
2022/07/18 10:53:03;;;;;;;7.70;3.30;;;;;;;;;;109134;1253;34354;-42
2022/07/18 10:55:37;;;;;;;4.20;2.90;;;;;;;;;;109127;1254;33744;-46
2022/07/18 10:58:25;;;;;;;4.60;2.80;;;;;;;;;;109151;1254;34409;-43
2022/07/18 11:01:04;;;;;;;4.70;2.40;;;;;;;;;;109165;1253;34435;-44
2022/07/18 11:03:39;;;;;;;5.10;2.80;;;;;;;;;;109128;1253;33637;-44
2022/07/18 11:06:11;;;;;;;5.50;2.50;;;;;;;;;;109127;1253;33882;-45
2022/07/18 11:08:43;;;;;;;5.80;2.80;;;;;;;;;;109155;1260;33878;-43
2022/07/18 11:11:17;;;;;;;4.90;2.70;;;;;;;;;;109152;1253;34133;-45
2022/07/18 11:13:53;;;;;;;4.50;2.20;;;;;;;;;;109147;1254;34004;-43
2022/07/18 11:16:29;;;;;;;3.90;2.00;;;;;;;;;;109148;1260;34206;-43
2022/07/18 11:19:22;;;;;;;4.50;2.10;;;;;;;;;;109144;1253;33819;-42
2022/07/18 11:22:03;;;;;;;4.50;1.90;;;;;;;;;;109144;1260;33813;-44
2022/07/18 11:24:36;;;;;;;4.30;2.20;;;;;;;;;;109140;1254;33861;-47
2022/07/18 11:27:09;;;;;;;4.20;2.00;;;;;;;;;;109119;1254;33718;-44
2022/07/18 11:29:45;;;;;;;3.80;2.10;;;;;;;;;;109162;1253;33339;-44
2022/07/18 11:32:22;;;;;;;5.40;2.40;;;;;;;;;;108884;1253;34331;-44
2022/07/18 11:34:55;;;;;;;5.00;2.10;;;;;;;;;;109132;1252;33752;-46
2022/07/18 11:37:28;;;;;;;4.60;2.40;;;;;;;;;;109156;1254;33706;-44
2022/07/18 11:40:12;;;;;;;3.00;1.70;;;;;;;;;;109148;1253;34136;-42
2022/07/18 11:42:47;;;;;;;3.90;1.70;;;;;;;;;;109147;1260;33919;-47
2022/07/18 11:45:24;;;;;;;3.90;1.70;;;;;;;;;;109148;1253;34368;-43
2022/07/18 11:47:57;;;;;;;4.20;2.00;;;;;;;;;;109142;1254;33704;-43
2022/07/18 11:50:40;;;;;;;4.80;2.00;;;;;;;;;;109152;1260;34182;-43
2022/07/18 11:53:14;;;;;;;3.90;1.80;;;;;;;;;;109168;1254;33309;-46
2022/07/18 11:55:48;;;;;;;3.50;1.50;;;;;;;;;;109129;1260;33917;-42
2022/07/18 11:58:22;;;;;;;3.90;1.70;;;;;;;;;;109143;1254;34570;-45
2022/07/18 12:01:00;;;;;;;4.70;1.80;;;;;;;;;;109146;1253;33742;-46
2022/07/18 12:03:34;;;;;;;3.60;1.60;;;;;;;;;;109145;1253;33466;-46
2022/07/18 12:06:20;;;;;;;3.30;1.50;;;;;;;;;;109165;1253;34381;-46
2022/07/18 12:08:56;;;;;;;3.30;1.60;;;;;;;;;;109136;1260;34401;-46
2022/07/18 12:11:34;;;;;;;3.10;1.40;;;;;;;;;;109118;1253;33413;-43
2022/07/18 12:14:15;;;;;;;3.30;1.60;;;;;;;;;;109154;1260;33858;-45
2022/07/18 12:16:49;;;;;;;4.40;1.60;;;;;;;;;;109138;1254;33829;-44
2022/07/18 12:19:32;;;;;;;3.90;1.40;;;;;;;;;;109178;1254;34059;-45
2022/07/18 12:22:11;;;;;;;3.70;1.60;;;;;;;;;;109137;1254;33443;-43
2022/07/18 12:24:54;;;;;;;3.80;1.40;;;;;;;;;;109158;1260;34699;-43
2022/07/18 12:27:34;;;;;;;2.80;1.30;;;;;;;;;;108828;1257;33841;-43
2022/07/18 12:30:16;;;;;;;3.80;1.50;;;;;;;;;;109162;1260;34301;-45
2022/07/18 12:32:52;;;;;;;3.70;1.80;;;;;;;;;;109127;1254;33703;-43
2022/07/18 12:35:27;;;;;;;4.10;1.50;;;;;;;;;;109179;1254;33882;-42
2022/07/18 12:38:04;;;;;;;3.50;1.50;;;;;;;;;;109173;1260;34269;-45
2022/07/18 12:40:52;;;;;;;3.90;1.50;;;;;;;;;;109125;1260;33866;-45
2022/07/18 12:43:29;;;;;;;3.50;1.50;;;;;;;;;;109123;1254;33348;-45
2022/07/18 12:46:03;;;;;;;2.90;1.30;;;;;;;;;;108851;1254;407018;-44
2022/07/18 12:48:38;;;;;;;3.40;1.50;;;;;;;;;;109146;1254;33848;-45
2022/07/18 12:51:12;;;;;;;3.80;1.60;;;;;;;;;;109147;1254;33865;-42
2022/07/18 12:53:47;;;;;;;3.80;1.60;;;;;;;;;;109128;1260;34337;-45
2022/07/18 12:56:19;;;;;;;3.40;1.40;;;;;;;;;;109160;1253;33711;-43
2022/07/18 12:58:52;;;;;;;3.90;1.40;;;;;;;;;;109153;1253;34169;-43
2022/07/18 13:01:25;;;;;;;3.70;1.30;;;;;;;;;;109093;1260;33825;-43
2022/07/18 13:04:00;;;;;;;3.20;1.50;;;;;;;;;;109138;1254;33882;-43
2022/07/18 13:06:33;;;;;;;3.60;1.50;;;;;;;;;;109106;1254;33712;-45
2022/07/18 13:09:06;;;;;;;4.60;1.60;;;;;;;;;;109146;1254;33762;-44
2022/07/18 13:11:40;;;;;;;3.40;1.40;;;;;;;;;;109105;1254;33842;-45
2022/07/18 13:14:12;;;;;;;3.40;1.70;;;;;;;;;;109120;1253;33785;-45
2022/07/18 13:16:45;;;;;;;5.50;1.90;;;;;;;;;;109123;1254;33708;-41
2022/07/18 13:19:18;;;;;;;3.20;1.30;;;;;;;;;;109108;1260;34185;-45
2022/07/18 13:21:51;;;;;;;3.90;1.40;;;;;;;;;;109132;1253;33744;-46
2022/07/18 13:24:25;;;;;;;3.70;1.40;;;;;;;;;;109137;1260;34075;-45
2022/07/18 13:26:57;;;;;;;3.30;1.40;;;;;;;;;;109149;1254;34199;-44
2022/07/18 13:29:29;;;;;;;2.50;1.00;;;;;;;;;;109134;1253;33851;-45
2022/07/18 13:32:03;;;;;;;3.70;1.30;;;;;;;;;;109098;1253;33936;-41
2022/07/18 13:34:35;;;;;;;2.90;1.10;;;;;;;;;;109159;1253;33284;-45
2022/07/18 13:37:08;;;;;;;2.90;1.10;;;;;;;;;;109121;1254;33694;-42
2022/07/18 13:39:40;;;;;;;3.00;1.30;;;;;;;;;;109152;1254;33845;-45
2022/07/18 13:42:13;;;;;;;2.70;1.00;;;;;;;;;;109143;1254;34271;-46
2022/07/18 13:44:48;;;;;;;2.30;0.80;;;;;;;;;;109116;1253;33897;-46
2022/07/18 13:47:20;;;;;;;2.80;1.20;;;;;;;;;;109130;1254;34147;-45
2022/07/18 13:49:52;;;;;;;2.60;1.00;;;;;;;;;;109147;1254;33482;-44
2022/07/18 13:52:24;;;;;;;2.70;1.20;;;;;;;;;;109119;1253;33347;-45
2022/07/18 13:54:56;;;;;;;2.40;1.20;;;;;;;;;;109161;1254;33854;-42
2022/07/18 13:57:29;;;;;;;3.60;1.20;;;;;;;;;;109120;1253;33827;-46
2022/07/18 14:00:01;;;;;;;2.60;1.10;;;;;;;;;;109146;1254;33621;-44
2022/07/18 14:02:35;;;;;;;2.80;1.20;;;;;;;;;;109148;1254;33682;-46
2022/07/18 14:05:11;;;;;;;2.70;1.20;;;;;;;;;;109129;1254;33721;-42
2022/07/18 14:07:44;;;;;;;3.40;1.30;;;;;;;;;;109123;1254;33852;-45
2022/07/18 14:10:17;;;;;;;2.30;1.00;;;;;;;;;;109126;1254;33323;-44
2022/07/18 14:12:50;;;;;;;3.90;1.20;;;;;;;;;;109091;1258;34273;-40
2022/07/18 14:15:22;;;;;;;3.20;1.30;;;;;;;;;;109064;1254;33913;-43
2022/07/18 14:17:54;;;;;;;3.60;1.10;;;;;;;;;;109045;1254;33943;-37
2022/07/18 14:20:26;;;;;;;3.30;1.50;;;;;;;;;;109109;1253;34124;-37
2022/07/18 14:22:58;;;;;;;3.00;1.10;;;;;;;;;;109079;1260;33849;-37
2022/07/18 14:25:31;;;;;;;2.50;1.00;;;;;;;;;;109107;1258;33705;-42
2022/07/18 14:28:03;;;;;;;2.80;1.00;;;;;;;;;;109116;1253;34120;-47
2022/07/18 14:30:36;;;;;;;3.30;1.20;;;;;;;;;;109048;1254;33884;-42
2022/07/18 14:33:10;;;;;;;2.30;1.00;;;;;;;;;;109163;1259;34213;-44
2022/07/18 14:35:43;;;;;;;2.60;1.10;;;;;;;;;;109120;1254;33834;-39
2022/07/18 14:38:16;;;;;;;4.00;1.10;;;;;;;;;;109133;1254;33769;-45
2022/07/18 14:40:48;;;;;;;3.30;1.00;;;;;;;;;;109122;1254;34322;-44
2022/07/18 14:43:20;;;;;;;3.60;1.10;;;;;;;;;;109166;1251;33917;-46
2022/07/18 14:45:53;;;;;;;2.70;1.00;;;;;;;;;;109112;1254;33865;-45
2022/07/18 14:48:25;;;;;;;3.20;1.20;;;;;;;;;;109139;1259;33891;-45
2022/07/18 14:50:58;;;;;;;3.10;1.30;;;;;;;;;;109160;1254;33852;-43
2022/07/18 14:53:30;;;;;;;4.10;1.80;;;;;;;;;;109129;1254;33313;-38
2022/07/18 14:56:02;;;;;;;3.80;1.60;;;;;;;;;;109133;1257;33720;-38
2022/07/18 14:58:34;;;;;;;4.10;2.10;;;;;;;;;;109093;1251;33755;-44
2022/07/18 15:01:07;;;;;;;5.40;2.00;;;;;;;;;;109132;1259;34465;-36
2022/07/18 15:03:39;;;;;;;3.00;1.60;;;;;;;;;;109154;1257;33911;-40
2022/07/18 15:06:12;;;;;;;3.50;1.50;;;;;;;;;;109180;1254;33825;-40
2022/07/18 15:08:43;;;;;;;4.30;1.70;;;;;;;;;;109203;1254;33383;-42
2022/07/18 15:11:18;;;;;;;4.00;1.70;;;;;;;;;;109114;1258;33807;-39
2022/07/18 15:13:51;;;;;;;4.50;2.00;;;;;;;;;;109117;1254;33755;-40